sensor_id;sensor_type;location;lat;lon;timestamp;P1;durP1;ratioP1;P2;durP2;ratioP2
66619;SDS011;53484;51.356;6.732;2023-04-03T00:00:12;11.82;;;6.45;;
66619;SDS011;53484;51.356;6.732;2023-04-03T00:02:38;12.57;;;6.25;;
66619;SDS011;53484;51.356;6.732;2023-04-03T00:05:07;12.45;;;5.78;;
66619;SDS011;53484;51.356;6.732;2023-04-03T00:07:33;10.90;;;6.30;;
66619;SDS011;53484;51.356;6.732;2023-04-03T00:09:59;15.10;;;5.90;;
66619;SDS011;53484;51.356;6.732;2023-04-03T00:12:26;8.38;;;5.45;;
66619;SDS011;53484;51.356;6.732;2023-04-03T00:14:52;11.95;;;5.70;;
66619;SDS011;53484;51.356;6.732;2023-04-03T00:17:18;10.82;;;5.43;;
66619;SDS011;53484;51.356;6.732;2023-04-03T00:19:45;12.03;;;5.90;;
66619;SDS011;53484;51.356;6.732;2023-04-03T00:22:12;8.90;;;5.18;;
66619;SDS011;53484;51.356;6.732;2023-04-03T00:24:38;10.40;;;5.45;;
66619;SDS011;53484;51.356;6.732;2023-04-03T00:27:05;10.13;;;5.70;;
66619;SDS011;53484;51.356;6.732;2023-04-03T00:29:31;9.55;;;5.75;;
66619;SDS011;53484;51.356;6.732;2023-04-03T00:31:57;13.10;;;7.03;;
66619;SDS011;53484;51.356;6.732;2023-04-03T00:34:24;9.07;;;5.80;;
66619;SDS011;53484;51.356;6.732;2023-04-03T00:36:50;11.32;;;6.28;;
66619;SDS011;53484;51.356;6.732;2023-04-03T00:39:18;9.68;;;5.60;;
66619;SDS011;53484;51.356;6.732;2023-04-03T00:41:44;10.75;;;5.90;;
66619;SDS011;53484;51.356;6.732;2023-04-03T00:44:18;11.60;;;6.30;;
66619;SDS011;53484;51.356;6.732;2023-04-03T00:46:45;13.68;;;7.25;;
66619;SDS011;53484;51.356;6.732;2023-04-03T00:49:11;13.07;;;7.00;;
66619;SDS011;53484;51.356;6.732;2023-04-03T00:51:37;9.18;;;5.68;;
66619;SDS011;53484;51.356;6.732;2023-04-03T00:54:05;11.00;;;5.80;;
66619;SDS011;53484;51.356;6.732;2023-04-03T00:56:33;11.13;;;6.03;;
66619;SDS011;53484;51.356;6.732;2023-04-03T00:59:03;10.82;;;5.97;;
66619;SDS011;53484;51.356;6.732;2023-04-03T01:01:30;14.10;;;6.72;;
66619;SDS011;53484;51.356;6.732;2023-04-03T01:03:58;11.85;;;6.20;;
66619;SDS011;53484;51.356;6.732;2023-04-03T01:06:26;11.63;;;7.13;;
66619;SDS011;53484;51.356;6.732;2023-04-03T01:08:53;14.40;;;7.03;;
66619;SDS011;53484;51.356;6.732;2023-04-03T01:11:21;12.70;;;6.70;;
66619;SDS011;53484;51.356;6.732;2023-04-03T01:13:48;11.00;;;6.35;;
66619;SDS011;53484;51.356;6.732;2023-04-03T01:16:15;11.63;;;5.65;;
66619;SDS011;53484;51.356;6.732;2023-04-03T01:18:41;10.38;;;5.32;;
66619;SDS011;53484;51.356;6.732;2023-04-03T01:24:01;11.85;;;6.03;;
66619;SDS011;53484;51.356;6.732;2023-04-03T01:26:31;9.15;;;5.35;;
66619;SDS011;53484;51.356;6.732;2023-04-03T01:28:59;12.73;;;5.90;;
66619;SDS011;53484;51.356;6.732;2023-04-03T01:31:27;10.30;;;6.00;;
66619;SDS011;53484;51.356;6.732;2023-04-03T01:33:55;10.93;;;5.80;;
66619;SDS011;53484;51.356;6.732;2023-04-03T01:36:22;15.55;;;6.10;;
66619;SDS011;53484;51.356;6.732;2023-04-03T01:38:49;9.07;;;5.82;;
66619;SDS011;53484;51.356;6.732;2023-04-03T01:41:15;10.07;;;5.68;;
66619;SDS011;53484;51.356;6.732;2023-04-03T01:43:42;10.35;;;5.70;;
66619;SDS011;53484;51.356;6.732;2023-04-03T01:46:08;7.83;;;5.03;;
66619;SDS011;53484;51.356;6.732;2023-04-03T01:48:34;11.23;;;6.47;;
66619;SDS011;53484;51.356;6.732;2023-04-03T01:51:02;11.60;;;5.88;;
66619;SDS011;53484;51.356;6.732;2023-04-03T01:53:28;12.70;;;6.20;;
66619;SDS011;53484;51.356;6.732;2023-04-03T01:55:55;12.35;;;6.57;;
66619;SDS011;53484;51.356;6.732;2023-04-03T01:58:21;11.80;;;6.90;;
66619;SDS011;53484;51.356;6.732;2023-04-03T02:00:47;11.63;;;6.03;;
66619;SDS011;53484;51.356;6.732;2023-04-03T02:03:14;15.40;;;6.63;;
66619;SDS011;53484;51.356;6.732;2023-04-03T02:05:40;12.30;;;6.43;;
66619;SDS011;53484;51.356;6.732;2023-04-03T02:08:08;11.10;;;6.15;;
66619;SDS011;53484;51.356;6.732;2023-04-03T02:10:35;13.37;;;7.23;;
66619;SDS011;53484;51.356;6.732;2023-04-03T02:13:01;11.60;;;6.80;;
66619;SDS011;53484;51.356;6.732;2023-04-03T02:15:27;13.02;;;7.22;;
66619;SDS011;53484;51.356;6.732;2023-04-03T02:17:54;16.30;;;7.65;;
66619;SDS011;53484;51.356;6.732;2023-04-03T02:20:20;13.45;;;7.43;;
66619;SDS011;53484;51.356;6.732;2023-04-03T02:22:46;12.30;;;7.67;;
66619;SDS011;53484;51.356;6.732;2023-04-03T02:25:14;16.25;;;7.93;;
66619;SDS011;53484;51.356;6.732;2023-04-03T02:27:42;13.27;;;7.32;;
66619;SDS011;53484;51.356;6.732;2023-04-03T02:30:09;15.43;;;7.68;;
66619;SDS011;53484;51.356;6.732;2023-04-03T02:32:35;12.80;;;6.45;;
66619;SDS011;53484;51.356;6.732;2023-04-03T02:35:02;13.97;;;7.60;;
66619;SDS011;53484;51.356;6.732;2023-04-03T02:37:28;15.57;;;7.00;;
66619;SDS011;53484;51.356;6.732;2023-04-03T02:39:55;13.70;;;6.93;;
66619;SDS011;53484;51.356;6.732;2023-04-03T02:42:22;13.07;;;6.93;;
66619;SDS011;53484;51.356;6.732;2023-04-03T02:44:48;10.98;;;6.25;;
66619;SDS011;53484;51.356;6.732;2023-04-03T02:47:15;13.17;;;6.10;;
66619;SDS011;53484;51.356;6.732;2023-04-03T02:49:41;12.85;;;6.22;;
66619;SDS011;53484;51.356;6.732;2023-04-03T02:52:08;11.45;;;6.65;;
66619;SDS011;53484;51.356;6.732;2023-04-03T02:54:34;12.88;;;5.65;;
66619;SDS011;53484;51.356;6.732;2023-04-03T02:57:01;16.02;;;6.63;;
66619;SDS011;53484;51.356;6.732;2023-04-03T02:59:28;10.80;;;5.77;;
66619;SDS011;53484;51.356;6.732;2023-04-03T03:01:55;13.35;;;6.05;;
66619;SDS011;53484;51.356;6.732;2023-04-03T03:04:21;13.88;;;6.20;;
66619;SDS011;53484;51.356;6.732;2023-04-03T03:06:47;10.13;;;5.45;;
66619;SDS011;53484;51.356;6.732;2023-04-03T03:09:14;11.18;;;5.63;;
66619;SDS011;53484;51.356;6.732;2023-04-03T03:11:40;14.03;;;6.40;;
66619;SDS011;53484;51.356;6.732;2023-04-03T03:14:06;10.40;;;5.13;;
66619;SDS011;53484;51.356;6.732;2023-04-03T03:16:34;11.32;;;5.28;;
66619;SDS011;53484;51.356;6.732;2023-04-03T03:19:03;11.65;;;5.68;;
66619;SDS011;53484;51.356;6.732;2023-04-03T03:21:29;10.20;;;5.63;;
66619;SDS011;53484;51.356;6.732;2023-04-03T03:23:55;11.00;;;4.70;;
66619;SDS011;53484;51.356;6.732;2023-04-03T03:26:22;11.40;;;5.65;;
66619;SDS011;53484;51.356;6.732;2023-04-03T03:28:48;10.30;;;5.35;;
66619;SDS011;53484;51.356;6.732;2023-04-03T03:31:15;9.88;;;5.25;;
66619;SDS011;53484;51.356;6.732;2023-04-03T03:33:42;10.48;;;5.97;;
66619;SDS011;53484;51.356;6.732;2023-04-03T03:36:09;10.20;;;5.10;;
66619;SDS011;53484;51.356;6.732;2023-04-03T03:38:35;11.27;;;5.00;;
66619;SDS011;53484;51.356;6.732;2023-04-03T03:41:01;12.32;;;5.32;;
66619;SDS011;53484;51.356;6.732;2023-04-03T03:43:28;10.68;;;4.45;;
66619;SDS011;53484;51.356;6.732;2023-04-03T03:45:54;11.65;;;5.20;;
66619;SDS011;53484;51.356;6.732;2023-04-03T03:48:21;9.80;;;3.90;;
66619;SDS011;53484;51.356;6.732;2023-04-03T03:50:49;12.18;;;4.43;;
66619;SDS011;53484;51.356;6.732;2023-04-03T03:53:15;9.68;;;4.80;;
66619;SDS011;53484;51.356;6.732;2023-04-03T03:55:41;7.47;;;3.85;;
66619;SDS011;53484;51.356;6.732;2023-04-03T03:58:08;8.25;;;4.18;;
66619;SDS011;53484;51.356;6.732;2023-04-03T04:00:34;10.10;;;4.27;;
66619;SDS011;53484;51.356;6.732;2023-04-03T04:03:00;8.63;;;3.90;;
66619;SDS011;53484;51.356;6.732;2023-04-03T04:05:27;8.38;;;3.58;;
66619;SDS011;53484;51.356;6.732;2023-04-03T04:07:54;7.93;;;3.58;;
66619;SDS011;53484;51.356;6.732;2023-04-03T04:10:20;11.10;;;3.77;;
66619;SDS011;53484;51.356;6.732;2023-04-03T04:12:47;8.23;;;3.70;;
66619;SDS011;53484;51.356;6.732;2023-04-03T04:15:14;7.43;;;3.85;;
66619;SDS011;53484;51.356;6.732;2023-04-03T04:17:40;10.27;;;3.53;;
66619;SDS011;53484;51.356;6.732;2023-04-03T04:20:07;9.52;;;3.65;;
66619;SDS011;53484;51.356;6.732;2023-04-03T04:22:33;8.07;;;3.10;;
66619;SDS011;53484;51.356;6.732;2023-04-03T04:25:01;9.02;;;3.38;;
66619;SDS011;53484;51.356;6.732;2023-04-03T04:27:27;8.30;;;3.25;;
66619;SDS011;53484;51.356;6.732;2023-04-03T04:29:54;8.05;;;2.90;;
66619;SDS011;53484;51.356;6.732;2023-04-03T04:32:20;8.63;;;2.70;;
66619;SDS011;53484;51.356;6.732;2023-04-03T04:34:46;7.27;;;2.87;;
66619;SDS011;53484;51.356;6.732;2023-04-03T04:37:12;9.73;;;3.38;;
66619;SDS011;53484;51.356;6.732;2023-04-03T04:39:39;9.35;;;2.83;;
66619;SDS011;53484;51.356;6.732;2023-04-03T04:42:06;7.60;;;2.67;;
66619;SDS011;53484;51.356;6.732;2023-04-03T04:44:37;9.10;;;2.70;;
66619;SDS011;53484;51.356;6.732;2023-04-03T04:47:03;7.27;;;2.77;;
66619;SDS011;53484;51.356;6.732;2023-04-03T04:49:30;9.20;;;3.15;;
66619;SDS011;53484;51.356;6.732;2023-04-03T04:51:56;9.38;;;2.85;;
66619;SDS011;53484;51.356;6.732;2023-04-03T04:54:24;6.85;;;3.10;;
66619;SDS011;53484;51.356;6.732;2023-04-03T04:56:51;8.02;;;3.25;;
66619;SDS011;53484;51.356;6.732;2023-04-03T04:59:18;8.70;;;2.60;;
66619;SDS011;53484;51.356;6.732;2023-04-03T05:01:47;7.32;;;2.53;;
66619;SDS011;53484;51.356;6.732;2023-04-03T05:04:13;9.15;;;2.80;;
66619;SDS011;53484;51.356;6.732;2023-04-03T05:06:42;9.38;;;3.47;;
66619;SDS011;53484;51.356;6.732;2023-04-03T05:09:08;5.07;;;2.42;;
66619;SDS011;53484;51.356;6.732;2023-04-03T05:11:36;9.87;;;2.37;;
66619;SDS011;53484;51.356;6.732;2023-04-03T05:14:02;10.30;;;2.55;;
66619;SDS011;53484;51.356;6.732;2023-04-03T05:16:31;7.00;;;2.58;;
66619;SDS011;53484;51.356;6.732;2023-04-03T05:18:57;8.18;;;2.47;;
66619;SDS011;53484;51.356;6.732;2023-04-03T05:21:25;7.53;;;2.15;;
66619;SDS011;53484;51.356;6.732;2023-04-03T05:23:54;9.97;;;2.50;;
66619;SDS011;53484;51.356;6.732;2023-04-03T05:26:20;11.85;;;2.38;;
66619;SDS011;53484;51.356;6.732;2023-04-03T05:28:47;8.98;;;2.22;;
66619;SDS011;53484;51.356;6.732;2023-04-03T05:31:13;8.73;;;2.58;;
66619;SDS011;53484;51.356;6.732;2023-04-03T05:33:41;7.82;;;2.65;;
66619;SDS011;53484;51.356;6.732;2023-04-03T05:36:08;11.20;;;2.60;;
66619;SDS011;53484;51.356;6.732;2023-04-03T05:38:34;8.18;;;2.40;;
66619;SDS011;53484;51.356;6.732;2023-04-03T05:41:00;10.27;;;3.00;;
66619;SDS011;53484;51.356;6.732;2023-04-03T05:43:27;4.97;;;1.85;;
66619;SDS011;53484;51.356;6.732;2023-04-03T05:45:53;6.50;;;2.67;;
66619;SDS011;53484;51.356;6.732;2023-04-03T05:48:19;6.18;;;2.03;;
66619;SDS011;53484;51.356;6.732;2023-04-03T05:50:47;9.15;;;2.53;;
66619;SDS011;53484;51.356;6.732;2023-04-03T05:53:15;7.18;;;2.25;;
66619;SDS011;53484;51.356;6.732;2023-04-03T05:55:42;9.75;;;2.55;;
66619;SDS011;53484;51.356;6.732;2023-04-03T05:58:09;7.13;;;2.50;;
66619;SDS011;53484;51.356;6.732;2023-04-03T06:00:35;7.55;;;2.58;;
66619;SDS011;53484;51.356;6.732;2023-04-03T06:03:02;10.70;;;2.88;;
66619;SDS011;53484;51.356;6.732;2023-04-03T06:05:28;10.60;;;2.58;;
66619;SDS011;53484;51.356;6.732;2023-04-03T06:07:56;7.85;;;2.65;;
66619;SDS011;53484;51.356;6.732;2023-04-03T06:10:23;8.77;;;2.50;;
66619;SDS011;53484;51.356;6.732;2023-04-03T06:12:49;9.60;;;3.13;;
66619;SDS011;53484;51.356;6.732;2023-04-03T06:15:15;7.72;;;2.58;;
66619;SDS011;53484;51.356;6.732;2023-04-03T06:17:42;7.00;;;2.58;;
66619;SDS011;53484;51.356;6.732;2023-04-03T06:20:09;8.55;;;2.63;;
66619;SDS011;53484;51.356;6.732;2023-04-03T06:22:35;6.43;;;2.50;;
66619;SDS011;53484;51.356;6.732;2023-04-03T06:25:04;10.02;;;2.88;;
66619;SDS011;53484;51.356;6.732;2023-04-03T06:27:31;8.60;;;2.67;;
66619;SDS011;53484;51.356;6.732;2023-04-03T06:29:57;8.20;;;2.58;;
66619;SDS011;53484;51.356;6.732;2023-04-03T06:32:24;8.43;;;2.70;;
66619;SDS011;53484;51.356;6.732;2023-04-03T06:34:50;5.23;;;2.20;;
66619;SDS011;53484;51.356;6.732;2023-04-03T06:37:19;7.28;;;2.67;;
66619;SDS011;53484;51.356;6.732;2023-04-03T06:39:45;8.88;;;2.83;;
66619;SDS011;53484;51.356;6.732;2023-04-03T06:42:13;9.30;;;2.58;;
66619;SDS011;53484;51.356;6.732;2023-04-03T06:44:40;5.75;;;2.25;;
66619;SDS011;53484;51.356;6.732;2023-04-03T06:47:06;9.57;;;2.80;;
66619;SDS011;53484;51.356;6.732;2023-04-03T06:49:33;7.45;;;2.97;;
66619;SDS011;53484;51.356;6.732;2023-04-03T06:52:02;6.25;;;2.20;;
66619;SDS011;53484;51.356;6.732;2023-04-03T06:54:30;9.23;;;2.20;;
66619;SDS011;53484;51.356;6.732;2023-04-03T06:56:56;5.75;;;2.20;;
66619;SDS011;53484;51.356;6.732;2023-04-03T06:59:24;8.73;;;1.87;;
66619;SDS011;53484;51.356;6.732;2023-04-03T07:01:51;10.45;;;2.92;;
66619;SDS011;53484;51.356;6.732;2023-04-03T07:04:17;9.57;;;2.90;;
66619;SDS011;53484;51.356;6.732;2023-04-03T07:06:45;6.40;;;2.30;;
66619;SDS011;53484;51.356;6.732;2023-04-03T07:09:11;7.35;;;2.55;;
66619;SDS011;53484;51.356;6.732;2023-04-03T07:11:38;6.07;;;2.30;;
66619;SDS011;53484;51.356;6.732;2023-04-03T07:14:05;6.22;;;2.47;;
66619;SDS011;53484;51.356;6.732;2023-04-03T07:16:34;8.98;;;3.00;;
66619;SDS011;53484;51.356;6.732;2023-04-03T07:19:00;7.57;;;2.45;;
66619;SDS011;53484;51.356;6.732;2023-04-03T07:21:26;7.28;;;2.08;;
66619;SDS011;53484;51.356;6.732;2023-04-03T07:23:53;6.50;;;2.50;;
66619;SDS011;53484;51.356;6.732;2023-04-03T07:26:19;10.00;;;2.70;;
66619;SDS011;53484;51.356;6.732;2023-04-03T07:28:46;11.05;;;2.33;;
66619;SDS011;53484;51.356;6.732;2023-04-03T07:31:13;7.00;;;2.10;;
66619;SDS011;53484;51.356;6.732;2023-04-03T07:33:42;7.50;;;2.13;;
66619;SDS011;53484;51.356;6.732;2023-04-03T07:36:09;10.10;;;2.87;;
66619;SDS011;53484;51.356;6.732;2023-04-03T07:38:36;7.13;;;2.28;;
66619;SDS011;53484;51.356;6.732;2023-04-03T07:41:02;7.50;;;2.00;;
66619;SDS011;53484;51.356;6.732;2023-04-03T07:43:29;9.18;;;2.30;;
66619;SDS011;53484;51.356;6.732;2023-04-03T07:45:55;5.13;;;1.75;;
66619;SDS011;53484;51.356;6.732;2023-04-03T07:48:22;8.37;;;2.27;;
66619;SDS011;53484;51.356;6.732;2023-04-03T07:50:50;7.72;;;2.28;;
66619;SDS011;53484;51.356;6.732;2023-04-03T07:53:17;9.93;;;2.33;;
66619;SDS011;53484;51.356;6.732;2023-04-03T07:55:45;6.47;;;1.73;;
66619;SDS011;53484;51.356;6.732;2023-04-03T07:58:15;8.73;;;2.22;;
66619;SDS011;53484;51.356;6.732;2023-04-03T08:00:41;7.50;;;2.20;;
66619;SDS011;53484;51.356;6.732;2023-04-03T08:03:09;7.65;;;1.88;;
66619;SDS011;53484;51.356;6.732;2023-04-03T08:05:37;6.70;;;1.98;;
66619;SDS011;53484;51.356;6.732;2023-04-03T08:08:05;8.20;;;1.98;;
66619;SDS011;53484;51.356;6.732;2023-04-03T08:10:32;11.52;;;2.10;;
66619;SDS011;53484;51.356;6.732;2023-04-03T08:12:58;5.23;;;1.90;;
66619;SDS011;53484;51.356;6.732;2023-04-03T08:15:25;6.43;;;1.90;;
66619;SDS011;53484;51.356;6.732;2023-04-03T08:17:52;8.70;;;1.83;;
66619;SDS011;53484;51.356;6.732;2023-04-03T08:20:18;3.90;;;1.50;;
66619;SDS011;53484;51.356;6.732;2023-04-03T08:22:45;6.05;;;1.73;;
66619;SDS011;53484;51.356;6.732;2023-04-03T08:25:13;6.93;;;1.60;;
66619;SDS011;53484;51.356;6.732;2023-04-03T08:27:40;8.45;;;2.00;;
66619;SDS011;53484;51.356;6.732;2023-04-03T08:30:07;7.50;;;1.60;;
66619;SDS011;53484;51.356;6.732;2023-04-03T08:32:34;5.30;;;1.13;;
66619;SDS011;53484;51.356;6.732;2023-04-03T08:35:00;6.80;;;1.48;;
66619;SDS011;53484;51.356;6.732;2023-04-03T08:37:27;5.57;;;1.17;;
66619;SDS011;53484;51.356;6.732;2023-04-03T08:39:53;5.32;;;1.38;;
66619;SDS011;53484;51.356;6.732;2023-04-03T08:42:23;5.18;;;1.38;;
66619;SDS011;53484;51.356;6.732;2023-04-03T08:44:53;4.03;;;1.10;;
66619;SDS011;53484;51.356;6.732;2023-04-03T08:47:23;3.75;;;1.25;;
66619;SDS011;53484;51.356;6.732;2023-04-03T08:49:51;4.17;;;1.47;;
66619;SDS011;53484;51.356;6.732;2023-04-03T08:52:18;6.90;;;1.35;;
66619;SDS011;53484;51.356;6.732;2023-04-03T08:54:48;5.13;;;1.30;;
66619;SDS011;53484;51.356;6.732;2023-04-03T08:57:15;3.53;;;1.20;;
66619;SDS011;53484;51.356;6.732;2023-04-03T08:59:43;4.78;;;1.30;;
66619;SDS011;53484;51.356;6.732;2023-04-03T09:02:16;4.77;;;1.00;;
66619;SDS011;53484;51.356;6.732;2023-04-03T09:04:47;4.20;;;0.82;;
66619;SDS011;53484;51.356;6.732;2023-04-03T09:07:13;6.78;;;1.25;;
66619;SDS011;53484;51.356;6.732;2023-04-03T09:09:42;4.28;;;1.05;;
66619;SDS011;53484;51.356;6.732;2023-04-03T09:12:14;3.70;;;1.17;;
66619;SDS011;53484;51.356;6.732;2023-04-03T09:14:42;4.03;;;1.10;;
66619;SDS011;53484;51.356;6.732;2023-04-03T09:17:14;4.80;;;1.25;;
66619;SDS011;53484;51.356;6.732;2023-04-03T09:19:41;4.82;;;1.00;;
66619;SDS011;53484;51.356;6.732;2023-04-03T09:22:11;3.15;;;1.10;;
66619;SDS011;53484;51.356;6.732;2023-04-03T09:24:39;7.60;;;1.10;;
66619;SDS011;53484;51.356;6.732;2023-04-03T09:27:07;4.70;;;0.90;;
66619;SDS011;53484;51.356;6.732;2023-04-03T09:29:34;5.15;;;1.02;;
66619;SDS011;53484;51.356;6.732;2023-04-03T09:32:02;4.97;;;1.65;;
66619;SDS011;53484;51.356;6.732;2023-04-03T09:34:37;6.32;;;0.73;;
66619;SDS011;53484;51.356;6.732;2023-04-03T09:37:04;6.05;;;1.20;;
66619;SDS011;53484;51.356;6.732;2023-04-03T09:39:32;5.23;;;1.00;;
66619;SDS011;53484;51.356;6.732;2023-04-03T09:41:59;3.78;;;0.85;;
66619;SDS011;53484;51.356;6.732;2023-04-03T09:44:28;4.65;;;1.00;;
66619;SDS011;53484;51.356;6.732;2023-04-03T09:46:54;4.03;;;0.98;;
66619;SDS011;53484;51.356;6.732;2023-04-03T09:49:21;2.60;;;1.10;;
66619;SDS011;53484;51.356;6.732;2023-04-03T09:51:48;3.80;;;1.10;;
66619;SDS011;53484;51.356;6.732;2023-04-03T09:54:25;4.03;;;1.20;;
66619;SDS011;53484;51.356;6.732;2023-04-03T09:56:52;6.63;;;1.27;;
66619;SDS011;53484;51.356;6.732;2023-04-03T09:59:19;3.70;;;0.98;;
66619;SDS011;53484;51.356;6.732;2023-04-03T10:01:57;4.55;;;1.10;;
66619;SDS011;53484;51.356;6.732;2023-04-03T10:04:23;4.17;;;0.90;;
66619;SDS011;53484;51.356;6.732;2023-04-03T10:06:52;2.83;;;0.68;;
66619;SDS011;53484;51.356;6.732;2023-04-03T10:09:20;2.95;;;0.70;;
66619;SDS011;53484;51.356;6.732;2023-04-03T10:11:56;4.30;;;0.88;;
66619;SDS011;53484;51.356;6.732;2023-04-03T10:14:23;5.90;;;0.90;;
66619;SDS011;53484;51.356;6.732;2023-04-03T10:16:51;4.87;;;0.87;;
66619;SDS011;53484;51.356;6.732;2023-04-03T10:19:25;4.10;;;0.90;;
66619;SDS011;53484;51.356;6.732;2023-04-03T10:22:02;4.68;;;1.00;;
66619;SDS011;53484;51.356;6.732;2023-04-03T10:24:32;5.97;;;1.00;;
66619;SDS011;53484;51.356;6.732;2023-04-03T10:27:02;2.45;;;0.90;;
66619;SDS011;53484;51.356;6.732;2023-04-03T10:29:35;3.10;;;1.00;;
66619;SDS011;53484;51.356;6.732;2023-04-03T10:32:06;4.25;;;1.10;;
66619;SDS011;53484;51.356;6.732;2023-04-03T10:34:38;5.05;;;1.20;;
66619;SDS011;53484;51.356;6.732;2023-04-03T10:37:10;4.82;;;1.10;;
66619;SDS011;53484;51.356;6.732;2023-04-03T10:39:40;2.75;;;0.95;;
66619;SDS011;53484;51.356;6.732;2023-04-03T10:42:10;3.00;;;1.00;;
66619;SDS011;53484;51.356;6.732;2023-04-03T10:44:42;4.70;;;1.00;;
66619;SDS011;53484;51.356;6.732;2023-04-03T10:47:14;5.22;;;1.38;;
66619;SDS011;53484;51.356;6.732;2023-04-03T10:49:44;5.20;;;1.20;;
66619;SDS011;53484;51.356;6.732;2023-04-03T10:52:20;5.95;;;1.50;;
66619;SDS011;53484;51.356;6.732;2023-04-03T10:54:49;7.10;;;1.27;;
66619;SDS011;53484;51.356;6.732;2023-04-03T10:57:21;6.00;;;1.10;;
66619;SDS011;53484;51.356;6.732;2023-04-03T10:59:49;5.25;;;1.30;;
66619;SDS011;53484;51.356;6.732;2023-04-03T11:02:19;4.80;;;1.15;;
66619;SDS011;53484;51.356;6.732;2023-04-03T11:04:55;4.68;;;1.20;;
66619;SDS011;53484;51.356;6.732;2023-04-03T11:07:26;3.83;;;1.00;;
66619;SDS011;53484;51.356;6.732;2023-04-03T11:10:00;4.68;;;0.90;;
66619;SDS011;53484;51.356;6.732;2023-04-03T11:12:28;5.07;;;1.20;;
66619;SDS011;53484;51.356;6.732;2023-04-03T11:14:59;3.40;;;0.90;;
66619;SDS011;53484;51.356;6.732;2023-04-03T11:17:30;6.93;;;1.60;;
66619;SDS011;53484;51.356;6.732;2023-04-03T11:20:00;5.87;;;2.00;;
66619;SDS011;53484;51.356;6.732;2023-04-03T11:22:29;4.60;;;2.30;;
66619;SDS011;53484;51.356;6.732;2023-04-03T11:24:59;3.90;;;2.15;;
66619;SDS011;53484;51.356;6.732;2023-04-03T11:27:28;6.38;;;2.35;;
66619;SDS011;53484;51.356;6.732;2023-04-03T11:29:57;5.75;;;2.22;;
66619;SDS011;53484;51.356;6.732;2023-04-03T11:32:28;4.73;;;2.20;;
66619;SDS011;53484;51.356;6.732;2023-04-03T11:34:57;4.38;;;2.38;;
66619;SDS011;53484;51.356;6.732;2023-04-03T11:37:26;7.38;;;2.65;;
66619;SDS011;53484;51.356;6.732;2023-04-03T11:39:57;6.15;;;2.38;;
66619;SDS011;53484;51.356;6.732;2023-04-03T11:42:25;3.90;;;2.40;;
66619;SDS011;53484;51.356;6.732;2023-04-03T11:47:44;5.40;;;2.42;;
66619;SDS011;53484;51.356;6.732;2023-04-03T11:52:58;6.80;;;2.80;;
66619;SDS011;53484;51.356;6.732;2023-04-03T11:55:45;4.13;;;2.33;;
66619;SDS011;53484;51.356;6.732;2023-04-03T11:58:18;4.38;;;2.40;;
66619;SDS011;53484;51.356;6.732;2023-04-03T12:01:06;5.95;;;2.42;;
66619;SDS011;53484;51.356;6.732;2023-04-03T12:09:04;5.53;;;2.08;;
66619;SDS011;53484;51.356;6.732;2023-04-03T12:11:49;6.97;;;2.60;;
66619;SDS011;53484;51.356;6.732;2023-04-03T12:14:15;4.97;;;2.35;;
66619;SDS011;53484;51.356;6.732;2023-04-03T12:16:43;4.97;;;2.08;;
66619;SDS011;53484;51.356;6.732;2023-04-03T12:22:11;3.97;;;2.20;;
66619;SDS011;53484;51.356;6.732;2023-04-03T12:24:38;4.95;;;2.45;;
66619;SDS011;53484;51.356;6.732;2023-04-03T12:29:50;4.13;;;1.85;;
66619;SDS011;53484;51.356;6.732;2023-04-03T12:32:20;5.72;;;2.20;;
66619;SDS011;53484;51.356;6.732;2023-04-03T12:34:53;4.75;;;2.20;;
66619;SDS011;53484;51.356;6.732;2023-04-03T12:37:23;5.22;;;2.53;;
66619;SDS011;53484;51.356;6.732;2023-04-03T12:39:59;4.78;;;2.42;;
66619;SDS011;53484;51.356;6.732;2023-04-03T12:42:32;4.38;;;2.40;;
66619;SDS011;53484;51.356;6.732;2023-04-03T12:45:03;5.53;;;1.90;;
66619;SDS011;53484;51.356;6.732;2023-04-03T12:47:36;7.00;;;2.20;;
66619;SDS011;53484;51.356;6.732;2023-04-03T12:50:13;4.90;;;2.00;;
66619;SDS011;53484;51.356;6.732;2023-04-03T12:52:42;4.75;;;1.75;;
66619;SDS011;53484;51.356;6.732;2023-04-03T12:55:14;5.93;;;2.05;;
66619;SDS011;53484;51.356;6.732;2023-04-03T12:57:41;5.25;;;2.72;;
66619;SDS011;53484;51.356;6.732;2023-04-03T13:00:20;6.38;;;2.33;;
66619;SDS011;53484;51.356;6.732;2023-04-03T13:02:47;6.15;;;2.53;;
66619;SDS011;53484;51.356;6.732;2023-04-03T13:05:14;3.85;;;2.35;;
66619;SDS011;53484;51.356;6.732;2023-04-03T13:07:42;5.03;;;2.35;;
66619;SDS011;53484;51.356;6.732;2023-04-03T13:10:14;5.50;;;2.20;;
66619;SDS011;53484;51.356;6.732;2023-04-03T13:12:48;6.10;;;2.45;;
66619;SDS011;53484;51.356;6.732;2023-04-03T13:15:17;6.15;;;2.28;;
66619;SDS011;53484;51.356;6.732;2023-04-03T13:17:45;4.47;;;1.83;;
66619;SDS011;53484;51.356;6.732;2023-04-03T13:20:14;4.40;;;2.25;;
66619;SDS011;53484;51.356;6.732;2023-04-03T13:22:42;4.75;;;1.90;;
66619;SDS011;53484;51.356;6.732;2023-04-03T13:25:11;5.95;;;2.47;;
66619;SDS011;53484;51.356;6.732;2023-04-03T13:27:40;4.18;;;2.08;;
66619;SDS011;53484;51.356;6.732;2023-04-03T13:30:17;6.47;;;2.30;;
66619;SDS011;53484;51.356;6.732;2023-04-03T13:32:45;7.32;;;2.25;;
66619;SDS011;53484;51.356;6.732;2023-04-03T13:35:25;5.03;;;2.00;;
66619;SDS011;53484;51.356;6.732;2023-04-03T13:37:53;4.38;;;2.00;;
66619;SDS011;53484;51.356;6.732;2023-04-03T13:40:20;5.55;;;2.10;;
66619;SDS011;53484;51.356;6.732;2023-04-03T13:42:46;4.70;;;2.08;;
66619;SDS011;53484;51.356;6.732;2023-04-03T13:45:24;4.93;;;1.70;;
66619;SDS011;53484;51.356;6.732;2023-04-03T13:48:06;5.18;;;2.20;;
66619;SDS011;53484;51.356;6.732;2023-04-03T13:50:33;4.65;;;1.98;;
66619;SDS011;53484;51.356;6.732;2023-04-03T13:53:15;3.65;;;1.95;;
66619;SDS011;53484;51.356;6.732;2023-04-03T13:55:51;4.72;;;2.72;;
66619;SDS011;53484;51.356;6.732;2023-04-03T13:58:21;5.88;;;2.30;;
66619;SDS011;53484;51.356;6.732;2023-04-03T14:00:49;5.43;;;1.90;;
66619;SDS011;53484;51.356;6.732;2023-04-03T14:03:19;4.15;;;2.13;;
66619;SDS011;53484;51.356;6.732;2023-04-03T14:05:46;5.65;;;2.40;;
66619;SDS011;53484;51.356;6.732;2023-04-03T14:08:13;4.93;;;2.47;;
66619;SDS011;53484;51.356;6.732;2023-04-03T14:10:39;5.82;;;2.08;;
66619;SDS011;53484;51.356;6.732;2023-04-03T14:13:08;5.60;;;2.30;;
66619;SDS011;53484;51.356;6.732;2023-04-03T14:15:35;4.95;;;2.13;;
66619;SDS011;53484;51.356;6.732;2023-04-03T14:18:01;4.43;;;1.88;;
66619;SDS011;53484;51.356;6.732;2023-04-03T14:20:29;4.00;;;1.52;;
66619;SDS011;53484;51.356;6.732;2023-04-03T14:22:55;4.82;;;2.25;;
66619;SDS011;53484;51.356;6.732;2023-04-03T14:25:22;4.85;;;1.83;;
66619;SDS011;53484;51.356;6.732;2023-04-03T14:27:49;4.65;;;2.33;;
66619;SDS011;53484;51.356;6.732;2023-04-03T14:30:17;4.97;;;2.15;;
66619;SDS011;53484;51.356;6.732;2023-04-03T14:32:44;4.32;;;1.98;;
66619;SDS011;53484;51.356;6.732;2023-04-03T14:35:11;5.00;;;2.13;;
66619;SDS011;53484;51.356;6.732;2023-04-03T14:37:39;4.20;;;2.08;;
66619;SDS011;53484;51.356;6.732;2023-04-03T14:40:07;4.93;;;2.17;;
66619;SDS011;53484;51.356;6.732;2023-04-03T14:42:34;6.07;;;2.10;;
66619;SDS011;53484;51.356;6.732;2023-04-03T14:45:02;3.88;;;1.60;;
66619;SDS011;53484;51.356;6.732;2023-04-03T14:47:29;4.22;;;1.42;;
66619;SDS011;53484;51.356;6.732;2023-04-03T14:49:55;4.40;;;2.35;;
66619;SDS011;53484;51.356;6.732;2023-04-03T14:52:22;4.90;;;2.15;;
66619;SDS011;53484;51.356;6.732;2023-04-03T14:54:52;5.00;;;1.63;;
66619;SDS011;53484;51.356;6.732;2023-04-03T14:57:18;7.07;;;2.20;;
66619;SDS011;53484;51.356;6.732;2023-04-03T14:59:45;4.88;;;1.92;;
66619;SDS011;53484;51.356;6.732;2023-04-03T15:02:20;3.85;;;1.48;;
66619;SDS011;53484;51.356;6.732;2023-04-03T15:04:49;5.95;;;2.28;;
66619;SDS011;53484;51.356;6.732;2023-04-03T15:07:15;4.55;;;1.83;;